createdAt,value
2023-01-25T00:02:04.642Z,91.61
2023-01-25T00:07:08.215Z,91.56
2023-01-25T00:12:11.938Z,91.55
2023-01-25T00:17:15.461Z,91.62
2023-01-25T00:22:18.868Z,91.46
2023-01-25T00:27:22.590Z,91.50
2023-01-25T00:32:38.108Z,91.37
2023-01-25T00:37:44.476Z,91.56
2023-01-25T00:42:47.876Z,91.54
2023-01-25T00:47:55.657Z,91.66
2023-01-25T00:52:59.006Z,91.70
2023-01-25T00:58:02.426Z,91.63
2023-01-25T01:03:06.034Z,91.63
2023-01-25T01:08:09.563Z,91.31
2023-01-25T01:13:13.068Z,91.61
2023-01-25T01:18:16.783Z,91.58
2023-01-25T01:23:21.016Z,91.18
2023-01-25T01:28:24.223Z,91.49
2023-01-25T01:33:29.079Z,91.51
2023-01-25T01:38:33.303Z,91.36
2023-01-25T01:43:36.594Z,91.32
2023-01-25T01:48:55.183Z,91.45
2023-01-25T01:54:09.758Z,91.21
2023-01-25T01:59:13.990Z,91.21
2023-01-25T02:04:19.328Z,91.03
2023-01-25T02:09:26.549Z,91.19
2023-01-25T02:14:30.974Z,91.03
2023-01-25T02:19:54.470Z,90.95
2023-01-25T02:25:13.862Z,90.77
2023-01-25T02:30:17.784Z,90.77
2023-01-25T02:35:24.775Z,90.87
2023-01-25T02:40:31.778Z,90.46
2023-01-25T02:45:35.396Z,90.76
2023-01-25T02:50:38.823Z,91.02
2023-01-25T02:55:42.324Z,91.14
2023-01-25T03:00:45.735Z,90.88
2023-01-25T03:05:49.460Z,90.71
2023-01-25T03:11:00.651Z,90.99
2023-01-25T03:16:07.921Z,90.85
2023-01-25T03:21:15.707Z,90.87
2023-01-25T03:26:22.376Z,90.88
2023-01-25T03:31:25.875Z,90.82
2023-01-25T03:36:29.521Z,90.84
2023-01-25T03:41:33.212Z,91.05
2023-01-25T03:46:36.649Z,90.97
2023-01-25T03:51:40.247Z,90.93
2023-01-25T03:56:43.760Z,90.93
2023-01-25T04:01:47.282Z,91.06
2023-01-25T04:06:50.942Z,91.05
2023-01-25T04:11:54.525Z,91.32
2023-01-25T04:16:58.026Z,91.30
2023-01-25T04:22:02.470Z,90.97
2023-01-25T04:27:06.499Z,91.06
2023-01-25T04:32:10.192Z,90.53
2023-01-25T04:37:13.937Z,90.62
2023-01-25T04:42:17.253Z,90.55
2023-01-25T04:47:20.871Z,90.64
2023-01-25T04:52:24.273Z,90.77
2023-01-25T04:57:27.896Z,90.90
2023-01-25T05:02:31.347Z,90.82
2023-01-25T05:07:34.924Z,90.71
2023-01-25T05:12:38.537Z,90.98
2023-01-25T05:17:42.059Z,91.04
2023-01-25T05:22:45.671Z,90.90
2023-01-25T05:27:49.603Z,90.91
2023-01-25T05:32:53.113Z,90.94
2023-01-25T05:38:00.372Z,91.02
2023-01-25T05:43:03.931Z,91.23
2023-01-25T05:48:07.553Z,91.01
2023-01-25T05:53:10.963Z,91.03
2023-01-25T05:58:14.373Z,91.01
2023-01-25T06:03:18.046Z,90.96
2023-01-25T06:08:21.616Z,91.03
2023-01-25T06:13:25.669Z,91.00
2023-01-25T06:18:31.536Z,91.01
2023-01-25T06:23:35.024Z,91.03
2023-01-25T06:28:39.174Z,91.03
2023-01-25T06:33:43.702Z,90.97
2023-01-25T06:38:51.207Z,90.99
2023-01-25T06:43:57.684Z,91.20
2023-01-25T06:49:01.307Z,91.17
2023-01-25T06:54:04.933Z,91.19
2023-01-25T06:59:10.897Z,91.04
2023-01-25T07:04:14.414Z,91.18
2023-01-25T07:09:23.975Z,91.30
2023-01-25T07:14:27.481Z,91.27
2023-01-25T07:19:31.099Z,91.28
2023-01-25T07:24:34.719Z,91.37
2023-01-25T07:29:38.248Z,91.52
2023-01-25T07:34:41.851Z,91.50
2023-01-25T07:39:50.804Z,91.61
2023-01-25T07:44:54.315Z,91.24
2023-01-25T07:49:57.928Z,91.24
2023-01-25T07:55:01.567Z,91.34
2023-01-25T08:00:10.792Z,91.25
2023-01-25T08:05:14.548Z,91.63
2023-01-25T08:10:18.541Z,91.03
2023-01-25T08:15:23.086Z,91.12
2023-01-25T08:20:26.905Z,91.22
2023-01-25T08:25:30.422Z,91.39
2023-01-25T08:30:34.828Z,91.52
2023-01-25T08:35:38.275Z,91.42
2023-01-25T08:40:41.785Z,91.54
2023-01-25T08:45:45.918Z,91.46
2023-01-25T08:50:49.439Z,91.43
2023-01-25T08:55:52.950Z,90.97
2023-01-25T09:01:03.688Z,91.27
2023-01-25T09:06:08.533Z,91.39
2023-01-25T09:11:14.781Z,91.22
2023-01-25T09:16:28.981Z,91.43
2023-01-25T09:21:33.676Z,91.14
2023-01-25T09:26:41.618Z,91.48
2023-01-25T09:31:45.432Z,91.46
2023-01-25T09:36:49.338Z,91.08
2023-01-25T09:42:06.766Z,91.04
2023-01-25T09:47:46.743Z,90.80
2023-01-25T09:53:11.356Z,90.62
2023-01-25T09:58:20.174Z,90.89
2023-01-25T10:03:49.516Z,91.39
2023-01-25T10:09:13.407Z,90.94
2023-01-25T10:14:19.577Z,91.19
2023-01-25T10:19:40.000Z,91.23
2023-01-25T10:25:20.992Z,90.88
2023-01-25T10:30:36.409Z,91.08
2023-01-25T10:35:48.106Z,91.13
2023-01-25T10:41:05.023Z,90.98
2023-01-25T10:46:25.819Z,90.71
2023-01-25T10:51:35.724Z,91.06
2023-01-25T10:56:40.347Z,90.66
2023-01-25T11:01:44.633Z,90.76
2023-01-25T11:06:50.584Z,90.59
2023-01-25T11:11:56.224Z,90.51
2023-01-25T11:17:02.068Z,90.90
2023-01-25T11:22:19.024Z,91.20
2023-01-25T11:27:26.150Z,91.01
2023-01-25T11:32:29.807Z,90.91
2023-01-25T11:37:39.192Z,91.03
2023-01-25T11:43:14.981Z,90.96
2023-01-25T11:48:35.682Z,91.01
2023-01-25T11:54:01.418Z,90.44
2023-01-25T11:59:29.307Z,90.75
2023-01-25T12:04:41.218Z,90.65
2023-01-25T12:10:03.062Z,90.46
2023-01-25T12:15:15.696Z,90.62
2023-01-25T12:20:45.628Z,90.45
2023-01-25T12:26:06.960Z,90.34
2023-01-25T12:31:16.397Z,90.70
2023-01-25T12:36:37.438Z,90.74
2023-01-25T12:41:46.399Z,90.48
2023-01-25T12:47:21.035Z,90.44
2023-01-25T12:52:37.856Z,90.27
2023-01-25T12:58:06.358Z,90.61
2023-01-25T13:03:30.863Z,90.30
2023-01-25T13:08:50.252Z,90.53
2023-01-25T13:13:53.971Z,90.37
2023-01-25T13:18:58.999Z,90.66
2023-01-25T13:24:22.471Z,90.62
2023-01-25T13:29:38.923Z,90.71
2023-01-25T13:34:42.863Z,90.64
2023-01-25T13:39:50.105Z,90.63
2023-01-25T13:45:21.070Z,90.46
2023-01-25T13:50:29.566Z,90.56
2023-01-25T13:55:44.912Z,90.47
2023-01-25T14:01:07.156Z,90.65
2023-01-25T14:06:41.151Z,90.54
2023-01-25T14:11:55.702Z,91.01
2023-01-25T14:17:34.433Z,90.93
2023-01-25T14:22:38.260Z,91.17
2023-01-25T14:27:43.621Z,91.11
2023-01-25T14:32:48.465Z,91.05
2023-01-25T14:37:51.892Z,90.67
2023-01-25T14:42:57.132Z,90.67
2023-01-25T14:48:00.545Z,90.73
2023-01-25T14:53:20.139Z,90.95
2023-01-25T14:58:25.719Z,91.07
2023-01-25T15:03:31.475Z,91.04
2023-01-25T15:08:39.399Z,91.39
2023-01-25T15:13:42.802Z,91.45
2023-01-25T15:18:54.404Z,91.28
2023-01-25T15:24:05.010Z,91.21
2023-01-25T15:29:23.864Z,91.35
2023-01-25T15:34:32.721Z,91.47
2023-01-25T15:39:36.578Z,91.52
2023-01-25T15:44:40.143Z,91.49
2023-01-25T15:49:43.564Z,91.52
2023-01-25T15:54:56.073Z,91.42
2023-01-25T16:00:06.592Z,91.50
2023-01-25T16:05:10.797Z,91.30
2023-01-25T16:10:23.955Z,91.48
2023-01-25T16:15:27.449Z,91.47
2023-01-25T16:20:31.577Z,91.63
2023-01-25T16:25:35.096Z,91.58
2023-01-25T16:30:38.940Z,91.90
2023-01-25T16:35:42.333Z,91.87
2023-01-25T16:40:45.847Z,92.00
2023-01-25T16:45:49.492Z,92.09
2023-01-25T16:50:53.083Z,91.86
2023-01-25T16:55:58.959Z,92.13
2023-01-25T17:01:09.365Z,92.24
2023-01-25T17:06:25.746Z,92.06
2023-01-25T17:11:29.789Z,92.22
2023-01-25T17:16:33.911Z,92.24
2023-01-25T17:21:37.627Z,92.33
2023-01-25T17:26:41.454Z,92.21
2023-01-25T17:31:45.055Z,92.27
2023-01-25T17:36:50.639Z,92.52
2023-01-25T17:41:54.245Z,92.38
2023-01-25T17:46:57.661Z,92.41
2023-01-25T17:52:03.126Z,92.54
2023-01-25T17:57:06.637Z,92.68
2023-01-25T18:02:11.652Z,92.81
2023-01-25T18:07:15.512Z,92.76
2023-01-25T18:12:20.530Z,92.92
2023-01-25T18:17:24.179Z,92.86
2023-01-25T18:22:29.129Z,92.97
2023-01-25T18:27:32.642Z,92.89
2023-01-25T18:32:36.157Z,92.93
2023-01-25T18:37:43.769Z,93.20
2023-01-25T18:42:47.292Z,93.28
2023-01-25T18:47:51.322Z,92.63
2023-01-25T18:52:56.057Z,93.04
2023-01-25T18:58:04.298Z,93.14
2023-01-25T19:03:07.824Z,93.31
2023-01-25T19:08:11.414Z,93.15
2023-01-25T19:13:14.929Z,93.19
2023-01-25T19:18:18.347Z,93.43
2023-01-25T19:23:21.858Z,93.36
2023-01-25T19:28:25.395Z,93.33
2023-01-25T19:33:28.891Z,93.63
2023-01-25T19:38:33.632Z,93.25
2023-01-25T19:43:37.459Z,93.63
2023-01-25T19:48:42.367Z,93.79
2023-01-25T19:53:48.940Z,93.92
2023-01-25T19:58:52.611Z,93.82
2023-01-25T20:04:02.431Z,93.94
2023-01-25T20:09:05.989Z,94.02
2023-01-25T20:14:12.601Z,93.86
2023-01-25T20:19:16.091Z,94.07
2023-01-25T20:24:19.847Z,94.29
2023-01-25T20:29:24.353Z,94.38
2023-01-25T20:34:27.871Z,94.29
2023-01-25T20:39:31.383Z,94.16
2023-01-25T20:44:35.004Z,93.84
2023-01-25T20:49:38.723Z,94.23
2023-01-25T20:54:42.952Z,94.25
2023-01-25T20:59:46.367Z,94.24
2023-01-25T21:04:49.778Z,94.59
2023-01-25T21:09:53.303Z,94.43
2023-01-25T21:14:56.913Z,94.33
2023-01-25T21:20:00.540Z,94.50
2023-01-25T21:25:04.486Z,94.38
2023-01-25T21:30:09.842Z,94.53
2023-01-25T21:35:13.537Z,94.22
2023-01-25T21:40:17.467Z,94.53
2023-01-25T21:45:39.640Z,94.38
2023-01-25T21:51:01.871Z,94.44
2023-01-25T21:56:05.894Z,94.29
2023-01-25T22:01:10.286Z,94.60
2023-01-25T22:06:13.848Z,94.69
2023-01-25T22:11:17.361Z,94.73
2023-01-25T22:16:21.797Z,94.60
2023-01-25T22:21:28.927Z,94.87
2023-01-25T22:26:59.784Z,94.86
2023-01-25T22:32:03.382Z,95.01
2023-01-25T22:37:06.886Z,94.95
2023-01-25T22:42:10.302Z,94.90
2023-01-25T22:47:13.816Z,95.04
2023-01-25T22:52:17.247Z,95.37
2023-01-25T22:57:20.743Z,95.22
2023-01-25T23:02:24.267Z,95.32
2023-01-25T23:07:27.773Z,95.25
2023-01-25T23:12:31.187Z,95.20
2023-01-25T23:17:53.341Z,95.19
2023-01-25T23:22:57.370Z,95.15
2023-01-25T23:28:00.791Z,95.32
2023-01-25T23:33:04.601Z,95.16
2023-01-25T23:38:15.489Z,95.12
2023-01-25T23:43:18.918Z,95.32
2023-01-25T23:48:22.623Z,95.36
2023-01-25T23:53:27.688Z,95.47
2023-01-25T23:58:31.090Z,95.40
